CheckWX is a tool to help pilots better visualize weather data.  It is not intended as a substitute for an official pre-flight weather briefing.

02:58:42 UTC

KISW METAR
Alexander Field South Wood County Airport
Wisconsin Rapids, Wisconsin, USA
Current

1 hour ago

KISW 230154Z AUTO 29005KT 10SM CLR 19/13 A3013 RMK AO2 SLP200 T01940133
Observed
Jul-23 @ 01:54 UTC
Wind
  • 290° at 5 KTS
Visibility
10 SM
Flight Rules
VFR
Cloud Levels
  • Clear skies
Temperature
19°C / 66°F
Dewpoint
13°C / 55°F
Humidity
68%
Altimeter
30.13" Hg
Pressure
1020.32 hPa
Previous

2 hours ago

KISW 230054Z AUTO 29004KT 10SM CLR 22/13 A3012 RMK AO2 SLP197 T02220133
Observed
Jul-23 @ 00:54 UTC
Wind
  • 290° at 4 KTS
Visibility
10 SM
Flight Rules
VFR
Cloud Levels
  • Clear skies
Temperature
22°C / 72°F
Dewpoint
13°C / 55°F
Humidity
57%
Altimeter
30.12" Hg
Pressure
1020.02 hPa
Previous

3 hours ago

KISW 222354Z AUTO 31006KT 10SM CLR 25/12 A3012 RMK AO2 SLP195 T02500117 10261 20233 56006
Observed
Jul-22 @ 23:54 UTC
Wind
  • 310° at 6 KTS
Visibility
10 SM
Flight Rules
VFR
Cloud Levels
  • Clear skies
Temperature
25°C / 77°F
Dewpoint
12°C / 54°F
Humidity
44%
Altimeter
30.12" Hg
Pressure
1020.02 hPa